<?xml version="1.0" encoding="UTF-8" standalone="no" ?>
<gpx xmlns="http://www.topografix.com/GPX/1/1" xmlns:xsi="http://www.w3.org/2001/XMLSchema-instance" xsi:schemaLocation="http://www.topografix.com/GPX/1/1 http://www.topografix.com/GPX/1/1/gpx.xsd" version="1.1" creator="VisuGPX - https://www.visugpx.com">
  <metadata>
    <name>Course à pied le matin</name>
  </metadata>
  <trk>
    <name><![CDATA[Course à pied le matin_1]]></name>
    <trkseg>
      <trkpt lat="46.0775" lon="6.743">
        <ele>752.1</ele>
        <time>2023-08-13T08:20:00Z</time>
      </trkpt>
      <trkpt lat="46.07751" lon="6.74301">
        <ele>752.1</ele>
        <time>2023-08-13T08:20:01Z</time>
      </trkpt>
      <trkpt lat="46.07752" lon="6.74305">
        <ele>754.1</ele>
        <time>2023-08-13T08:20:04Z</time>
      </trkpt>
      <trkpt lat="46.07758" lon="6.7433">
        <ele>762.5</ele>
        <time>2023-08-13T08:20:19Z</time>
      </trkpt>
      <trkpt lat="46.07761" lon="6.74336">
        <ele>765.5</ele>
        <time>2023-08-13T08:20:26Z</time>
      </trkpt>
      <trkpt lat="46.07762" lon="6.74337">
        <ele>767.1</ele>
        <time>2023-08-13T08:20:28Z</time>
      </trkpt>
      <trkpt lat="46.07762" lon="6.74342">
        <ele>768.6</ele>
        <time>2023-08-13T08:20:33Z</time>
      </trkpt>
      <trkpt lat="46.07765" lon="6.74348">
        <ele>771</ele>
        <time>2023-08-13T08:20:40Z</time>
      </trkpt>
      <trkpt lat="46.07765" lon="6.74349">
        <ele>771</ele>
        <time>2023-08-13T08:20:41Z</time>
      </trkpt>
      <trkpt lat="46.07764" lon="6.74349">
        <ele>771</ele>
        <time>2023-08-13T08:20:43Z</time>
      </trkpt>
      <trkpt lat="46.07765" lon="6.7435">
        <ele>771</ele>
        <time>2023-08-13T08:20:46Z</time>
      </trkpt>
      <trkpt lat="46.0777" lon="6.74361">
        <ele>777.3</ele>
        <time>2023-08-13T08:20:54Z</time>
      </trkpt>
      <trkpt lat="46.07775" lon="6.74363">
        <ele>780</ele>
        <time>2023-08-13T08:20:58Z</time>
      </trkpt>
      <trkpt lat="46.07775" lon="6.74364">
        <ele>780</ele>
        <time>2023-08-13T08:21:00Z</time>
      </trkpt>
      <trkpt lat="46.07775" lon="6.74366">
        <ele>780</ele>
        <time>2023-08-13T08:21:03Z</time>
      </trkpt>
      <trkpt lat="46.07776" lon="6.74367">
        <ele>781.2</ele>
        <time>2023-08-13T08:21:05Z</time>
      </trkpt>
      <trkpt lat="46.07791" lon="6.74382">
        <ele>793.5</ele>
        <time>2023-08-13T08:21:24Z</time>
      </trkpt>
      <trkpt lat="46.078" lon="6.74404">
        <ele>805.8</ele>
        <time>2023-08-13T08:21:39Z</time>
      </trkpt>
      <trkpt lat="46.078" lon="6.74404">
        <ele>805.8</ele>
        <time>2023-08-13T08:21:41Z</time>
      </trkpt>
      <trkpt lat="46.07802" lon="6.74405">
        <ele>805.8</ele>
        <time>2023-08-13T08:21:43Z</time>
      </trkpt>
      <trkpt lat="46.07813" lon="6.74412">
        <ele>814.6</ele>
        <time>2023-08-13T08:21:59Z</time>
      </trkpt>
      <trkpt lat="46.07815" lon="6.7441">
        <ele>816</ele>
        <time>2023-08-13T08:22:04Z</time>
      </trkpt>
      <trkpt lat="46.0783" lon="6.74421">
        <ele>825.8</ele>
        <time>2023-08-13T08:22:31Z</time>
      </trkpt>
      <trkpt lat="46.07839" lon="6.74439">
        <ele>836.5</ele>
        <time>2023-08-13T08:22:53Z</time>
      </trkpt>
      <trkpt lat="46.07854" lon="6.74454">
        <ele>848.6</ele>
        <time>2023-08-13T08:23:09Z</time>
      </trkpt>
      <trkpt lat="46.07858" lon="6.7446">
        <ele>851.4</ele>
        <time>2023-08-13T08:23:15Z</time>
      </trkpt>
      <trkpt lat="46.07863" lon="6.74473">
        <ele>858.4</ele>
        <time>2023-08-13T08:23:25Z</time>
      </trkpt>
      <trkpt lat="46.07865" lon="6.74477">
        <ele>861.3</ele>
        <time>2023-08-13T08:23:29Z</time>
      </trkpt>
      <trkpt lat="46.07868" lon="6.74479">
        <ele>862.8</ele>
        <time>2023-08-13T08:23:33Z</time>
      </trkpt>
      <trkpt lat="46.07872" lon="6.74502">
        <ele>872.4</ele>
        <time>2023-08-13T08:23:54Z</time>
      </trkpt>
      <trkpt lat="46.07886" lon="6.7452">
        <ele>885.5</ele>
        <time>2023-08-13T08:24:19Z</time>
      </trkpt>
      <trkpt lat="46.0789" lon="6.74532">
        <ele>891.7</ele>
        <time>2023-08-13T08:24:35Z</time>
      </trkpt>
      <trkpt lat="46.0789" lon="6.74533">
        <ele>891.7</ele>
        <time>2023-08-13T08:24:37Z</time>
      </trkpt>
      <trkpt lat="46.0789" lon="6.74537">
        <ele>893.1</ele>
        <time>2023-08-13T08:24:43Z</time>
      </trkpt>
      <trkpt lat="46.0789" lon="6.74537">
        <ele>893.1</ele>
        <time>2023-08-13T08:24:44Z</time>
      </trkpt>
      <trkpt lat="46.07898" lon="6.74554">
        <ele>903.3</ele>
        <time>2023-08-13T08:25:09Z</time>
      </trkpt>
      <trkpt lat="46.07902" lon="6.7456">
        <ele>906.2</ele>
        <time>2023-08-13T08:25:15Z</time>
      </trkpt>
      <trkpt lat="46.07903" lon="6.74562">
        <ele>908.4</ele>
        <time>2023-08-13T08:25:19Z</time>
      </trkpt>
      <trkpt lat="46.07909" lon="6.74568">
        <ele>912.9</ele>
        <time>2023-08-13T08:25:24Z</time>
      </trkpt>
      <trkpt lat="46.07924" lon="6.74585">
        <ele>926.8</ele>
        <time>2023-08-13T08:25:35Z</time>
      </trkpt>
      <trkpt lat="46.07925" lon="6.74595">
        <ele>930.7</ele>
        <time>2023-08-13T08:25:40Z</time>
      </trkpt>
      <trkpt lat="46.07926" lon="6.74597">
        <ele>931.8</ele>
        <time>2023-08-13T08:25:42Z</time>
      </trkpt>
      <trkpt lat="46.0793" lon="6.746">
        <ele>934.4</ele>
        <time>2023-08-13T08:25:46Z</time>
      </trkpt>
      <trkpt lat="46.07932" lon="6.74618">
        <ele>940.6</ele>
        <time>2023-08-13T08:25:57Z</time>
      </trkpt>
      <trkpt lat="46.07935" lon="6.74625">
        <ele>943.3</ele>
        <time>2023-08-13T08:26:01Z</time>
      </trkpt>
      <trkpt lat="46.0794" lon="6.74634">
        <ele>949.9</ele>
        <time>2023-08-13T08:26:09Z</time>
      </trkpt>
      <trkpt lat="46.07942" lon="6.74639">
        <ele>951</ele>
        <time>2023-08-13T08:26:13Z</time>
      </trkpt>
      <trkpt lat="46.07943" lon="6.74641">
        <ele>952.9</ele>
        <time>2023-08-13T08:26:17Z</time>
      </trkpt>
      <trkpt lat="46.07943" lon="6.74645">
        <ele>954</ele>
        <time>2023-08-13T08:26:21Z</time>
      </trkpt>
      <trkpt lat="46.07943" lon="6.74648">
        <ele>955.2</ele>
        <time>2023-08-13T08:26:24Z</time>
      </trkpt>
      <trkpt lat="46.07945" lon="6.74652">
        <ele>956.4</ele>
        <time>2023-08-13T08:26:28Z</time>
      </trkpt>
      <trkpt lat="46.07945" lon="6.74654">
        <ele>958.3</ele>
        <time>2023-08-13T08:26:31Z</time>
      </trkpt>
      <trkpt lat="46.07956" lon="6.7467">
        <ele>968.2</ele>
        <time>2023-08-13T08:26:47Z</time>
      </trkpt>
      <trkpt lat="46.07956" lon="6.74672">
        <ele>968.2</ele>
        <time>2023-08-13T08:26:49Z</time>
      </trkpt>
      <trkpt lat="46.07959" lon="6.74674">
        <ele>970.9</ele>
        <time>2023-08-13T08:26:51Z</time>
      </trkpt>
      <trkpt lat="46.07965" lon="6.74678">
        <ele>975.1</ele>
        <time>2023-08-13T08:26:56Z</time>
      </trkpt>
      <trkpt lat="46.07982" lon="6.74693">
        <ele>988.2</ele>
        <time>2023-08-13T08:27:07Z</time>
      </trkpt>
      <trkpt lat="46.07985" lon="6.74695">
        <ele>990.9</ele>
        <time>2023-08-13T08:27:09Z</time>
      </trkpt>
      <trkpt lat="46.07987" lon="6.74702">
        <ele>993.6</ele>
        <time>2023-08-13T08:27:16Z</time>
      </trkpt>
      <trkpt lat="46.07989" lon="6.74704">
        <ele>994.7</ele>
        <time>2023-08-13T08:27:19Z</time>
      </trkpt>
      <trkpt lat="46.07991" lon="6.74708">
        <ele>997.3</ele>
        <time>2023-08-13T08:27:24Z</time>
      </trkpt>
      <trkpt lat="46.07991" lon="6.74709">
        <ele>997.3</ele>
        <time>2023-08-13T08:27:26Z</time>
      </trkpt>
      <trkpt lat="46.07993" lon="6.74712">
        <ele>999.7</ele>
        <time>2023-08-13T08:27:30Z</time>
      </trkpt>
      <trkpt lat="46.08008" lon="6.74727">
        <ele>1010.1</ele>
        <time>2023-08-13T08:27:42Z</time>
      </trkpt>
      <trkpt lat="46.08018" lon="6.74735">
        <ele>1015.8</ele>
        <time>2023-08-13T08:27:54Z</time>
      </trkpt>
      <trkpt lat="46.08031" lon="6.74754">
        <ele>1027</ele>
        <time>2023-08-13T08:28:12Z</time>
      </trkpt>
      <trkpt lat="46.0804" lon="6.74772">
        <ele>1034.9</ele>
        <time>2023-08-13T08:28:37Z</time>
      </trkpt>
      <trkpt lat="46.08038" lon="6.74774">
        <ele>1034.9</ele>
        <time>2023-08-13T08:28:40Z</time>
      </trkpt>
      <trkpt lat="46.08039" lon="6.74777">
        <ele>1035.9</ele>
        <time>2023-08-13T08:28:43Z</time>
      </trkpt>
      <trkpt lat="46.0804" lon="6.7478">
        <ele>1036.9</ele>
        <time>2023-08-13T08:28:45Z</time>
      </trkpt>
      <trkpt lat="46.08044" lon="6.74782">
        <ele>1039.5</ele>
        <time>2023-08-13T08:28:54Z</time>
      </trkpt>
      <trkpt lat="46.0805" lon="6.74793">
        <ele>1045.5</ele>
        <time>2023-08-13T08:29:05Z</time>
      </trkpt>
      <trkpt lat="46.08057" lon="6.74802">
        <ele>1050.5</ele>
        <time>2023-08-13T08:29:16Z</time>
      </trkpt>
      <trkpt lat="46.08062" lon="6.74808">
        <ele>1054.5</ele>
        <time>2023-08-13T08:29:26Z</time>
      </trkpt>
      <trkpt lat="46.08066" lon="6.74813">
        <ele>1057</ele>
        <time>2023-08-13T08:29:35Z</time>
      </trkpt>
      <trkpt lat="46.08065" lon="6.74814">
        <ele>1058</ele>
        <time>2023-08-13T08:29:39Z</time>
      </trkpt>
      <trkpt lat="46.08064" lon="6.74815">
        <ele>1056.5</ele>
        <time>2023-08-13T08:29:42Z</time>
      </trkpt>
      <trkpt lat="46.08063" lon="6.74818">
        <ele>1056.5</ele>
        <time>2023-08-13T08:29:46Z</time>
      </trkpt>
      <trkpt lat="46.08064" lon="6.7482">
        <ele>1057.5</ele>
        <time>2023-08-13T08:29:51Z</time>
      </trkpt>
      <trkpt lat="46.08065" lon="6.74821">
        <ele>1058.9</ele>
        <time>2023-08-13T08:29:53Z</time>
      </trkpt>
      <trkpt lat="46.08071" lon="6.74843">
        <ele>1066.8</ele>
        <time>2023-08-13T08:30:28Z</time>
      </trkpt>
      <trkpt lat="46.08083" lon="6.74854">
        <ele>1076</ele>
        <time>2023-08-13T08:30:41Z</time>
      </trkpt>
      <trkpt lat="46.08094" lon="6.74856">
        <ele>1082.5</ele>
        <time>2023-08-13T08:31:00Z</time>
      </trkpt>
      <trkpt lat="46.08094" lon="6.74856">
        <ele>1082.5</ele>
        <time>2023-08-13T08:31:02Z</time>
      </trkpt>
      <trkpt lat="46.0809" lon="6.74853">
        <ele>1080.8</ele>
        <time>2023-08-13T08:31:06Z</time>
      </trkpt>
      <trkpt lat="46.08091" lon="6.74854">
        <ele>1080.8</ele>
        <time>2023-08-13T08:31:10Z</time>
      </trkpt>
      <trkpt lat="46.08096" lon="6.74856">
        <ele>1084</ele>
        <time>2023-08-13T08:31:13Z</time>
      </trkpt>
      <trkpt lat="46.08098" lon="6.74858">
        <ele>1086.5</ele>
        <time>2023-08-13T08:31:15Z</time>
      </trkpt>
      <trkpt lat="46.08104" lon="6.74858">
        <ele>1089.9</ele>
        <time>2023-08-13T08:31:29Z</time>
      </trkpt>
      <trkpt lat="46.08103" lon="6.74856">
        <ele>1087.2</ele>
        <time>2023-08-13T08:31:33Z</time>
      </trkpt>
      <trkpt lat="46.08104" lon="6.74856">
        <ele>1089</ele>
        <time>2023-08-13T08:31:39Z</time>
      </trkpt>
      <trkpt lat="46.08105" lon="6.7487">
        <ele>1092.6</ele>
        <time>2023-08-13T08:31:49Z</time>
      </trkpt>
      <trkpt lat="46.08109" lon="6.74875">
        <ele>1095.5</ele>
        <time>2023-08-13T08:31:53Z</time>
      </trkpt>
      <trkpt lat="46.0811" lon="6.74878">
        <ele>1097.5</ele>
        <time>2023-08-13T08:31:55Z</time>
      </trkpt>
      <trkpt lat="46.08112" lon="6.74881">
        <ele>1098.5</ele>
        <time>2023-08-13T08:31:57Z</time>
      </trkpt>
      <trkpt lat="46.08113" lon="6.74907">
        <ele>1106.3</ele>
        <time>2023-08-13T08:32:16Z</time>
      </trkpt>
      <trkpt lat="46.08117" lon="6.74911">
        <ele>1106.4</ele>
        <time>2023-08-13T08:32:22Z</time>
      </trkpt>
      <trkpt lat="46.08118" lon="6.74913">
        <ele>1106.5</ele>
        <time>2023-08-13T08:32:23Z</time>
      </trkpt>
      <trkpt lat="46.08122" lon="6.74917">
        <ele>1109.2</ele>
        <time>2023-08-13T08:32:27Z</time>
      </trkpt>
      <trkpt lat="46.08123" lon="6.7492">
        <ele>1110.3</ele>
        <time>2023-08-13T08:32:30Z</time>
      </trkpt>
      <trkpt lat="46.08123" lon="6.74921">
        <ele>1110.8</ele>
        <time>2023-08-13T08:32:32Z</time>
      </trkpt>
      <trkpt lat="46.08128" lon="6.74928">
        <ele>1114.7</ele>
        <time>2023-08-13T08:32:38Z</time>
      </trkpt>
      <trkpt lat="46.08128" lon="6.74929">
        <ele>1114.9</ele>
        <time>2023-08-13T08:32:39Z</time>
      </trkpt>
      <trkpt lat="46.08135" lon="6.74937">
        <ele>1120.7</ele>
        <time>2023-08-13T08:32:44Z</time>
      </trkpt>
      <trkpt lat="46.08138" lon="6.74942">
        <ele>1123.5</ele>
        <time>2023-08-13T08:32:47Z</time>
      </trkpt>
      <trkpt lat="46.08143" lon="6.74944">
        <ele>1126.7</ele>
        <time>2023-08-13T08:32:52Z</time>
      </trkpt>
      <trkpt lat="46.08146" lon="6.74952">
        <ele>1130.8</ele>
        <time>2023-08-13T08:33:04Z</time>
      </trkpt>
      <trkpt lat="46.08148" lon="6.74951">
        <ele>1132.1</ele>
        <time>2023-08-13T08:33:07Z</time>
      </trkpt>
      <trkpt lat="46.0815" lon="6.74952">
        <ele>1133.3</ele>
        <time>2023-08-13T08:33:10Z</time>
      </trkpt>
      <trkpt lat="46.08151" lon="6.74953">
        <ele>1134.1</ele>
        <time>2023-08-13T08:33:12Z</time>
      </trkpt>
      <trkpt lat="46.08151" lon="6.74953">
        <ele>1134.8</ele>
        <time>2023-08-13T08:33:14Z</time>
      </trkpt>
      <trkpt lat="46.08153" lon="6.74955">
        <ele>1136.1</ele>
        <time>2023-08-13T08:33:18Z</time>
      </trkpt>
      <trkpt lat="46.08154" lon="6.74956">
        <ele>1136.9</ele>
        <time>2023-08-13T08:33:20Z</time>
      </trkpt>
      <trkpt lat="46.08157" lon="6.74958">
        <ele>1138.9</ele>
        <time>2023-08-13T08:33:24Z</time>
      </trkpt>
      <trkpt lat="46.08156" lon="6.74959">
        <ele>1139.4</ele>
        <time>2023-08-13T08:33:25Z</time>
      </trkpt>
      <trkpt lat="46.08156" lon="6.74963">
        <ele>1141.3</ele>
        <time>2023-08-13T08:33:28Z</time>
      </trkpt>
      <trkpt lat="46.08157" lon="6.74966">
        <ele>1142.8</ele>
        <time>2023-08-13T08:33:33Z</time>
      </trkpt>
      <trkpt lat="46.08158" lon="6.7496">
        <ele>1145.6</ele>
        <time>2023-08-13T08:33:38Z</time>
      </trkpt>
      <trkpt lat="46.08168" lon="6.74964">
        <ele>1152.4</ele>
        <time>2023-08-13T08:34:00Z</time>
      </trkpt>
      <trkpt lat="46.08172" lon="6.74964">
        <ele>1154.9</ele>
        <time>2023-08-13T08:34:03Z</time>
      </trkpt>
      <trkpt lat="46.08177" lon="6.74966">
        <ele>1158.4</ele>
        <time>2023-08-13T08:34:08Z</time>
      </trkpt>
      <trkpt lat="46.08189" lon="6.74969">
        <ele>1166.1</ele>
        <time>2023-08-13T08:34:25Z</time>
      </trkpt>
      <trkpt lat="46.08193" lon="6.7497">
        <ele>1168.3</ele>
        <time>2023-08-13T08:34:30Z</time>
      </trkpt>
      <trkpt lat="46.08193" lon="6.7497">
        <ele>1168.7</ele>
        <time>2023-08-13T08:34:32Z</time>
      </trkpt>
      <trkpt lat="46.08196" lon="6.74972">
        <ele>1170.8</ele>
        <time>2023-08-13T08:34:36Z</time>
      </trkpt>
      <trkpt lat="46.08199" lon="6.74975">
        <ele>1173</ele>
        <time>2023-08-13T08:34:41Z</time>
      </trkpt>
      <trkpt lat="46.08201" lon="6.74976">
        <ele>1174</ele>
        <time>2023-08-13T08:34:45Z</time>
      </trkpt>
      <trkpt lat="46.08201" lon="6.74978">
        <ele>1175</ele>
        <time>2023-08-13T08:34:49Z</time>
      </trkpt>
      <trkpt lat="46.08202" lon="6.74979">
        <ele>1175.2</ele>
        <time>2023-08-13T08:34:50Z</time>
      </trkpt>
      <trkpt lat="46.08203" lon="6.74978">
        <ele>1175.8</ele>
        <time>2023-08-13T08:34:52Z</time>
      </trkpt>
      <trkpt lat="46.08208" lon="6.74978">
        <ele>1179</ele>
        <time>2023-08-13T08:34:56Z</time>
      </trkpt>
      <trkpt lat="46.08214" lon="6.74977">
        <ele>1182.7</ele>
        <time>2023-08-13T08:35:04Z</time>
      </trkpt>
      <trkpt lat="46.08216" lon="6.7498">
        <ele>1184.3</ele>
        <time>2023-08-13T08:35:08Z</time>
      </trkpt>
      <trkpt lat="46.08218" lon="6.7498">
        <ele>1185.7</ele>
        <time>2023-08-13T08:35:12Z</time>
      </trkpt>
      <trkpt lat="46.0822" lon="6.74977">
        <ele>1187.3</ele>
        <time>2023-08-13T08:35:17Z</time>
      </trkpt>
      <trkpt lat="46.08223" lon="6.74978">
        <ele>1188.8</ele>
        <time>2023-08-13T08:35:21Z</time>
      </trkpt>
      <trkpt lat="46.08223" lon="6.74978">
        <ele>1189.1</ele>
        <time>2023-08-13T08:35:22Z</time>
      </trkpt>
      <trkpt lat="46.08226" lon="6.74978">
        <ele>1190.6</ele>
        <time>2023-08-13T08:35:26Z</time>
      </trkpt>
      <trkpt lat="46.08229" lon="6.74984">
        <ele>1193.7</ele>
        <time>2023-08-13T08:35:35Z</time>
      </trkpt>
      <trkpt lat="46.08232" lon="6.74987">
        <ele>1196.2</ele>
        <time>2023-08-13T08:35:39Z</time>
      </trkpt>
      <trkpt lat="46.0825" lon="6.74998">
        <ele>1207</ele>
        <time>2023-08-13T08:35:53Z</time>
      </trkpt>
      <trkpt lat="46.08251" lon="6.74998">
        <ele>1207.7</ele>
        <time>2023-08-13T08:35:55Z</time>
      </trkpt>
      <trkpt lat="46.08252" lon="6.75">
        <ele>1208.7</ele>
        <time>2023-08-13T08:35:58Z</time>
      </trkpt>
      <trkpt lat="46.08253" lon="6.75002">
        <ele>1209.8</ele>
        <time>2023-08-13T08:36:01Z</time>
      </trkpt>
      <trkpt lat="46.08255" lon="6.75005">
        <ele>1211.6</ele>
        <time>2023-08-13T08:36:05Z</time>
      </trkpt>
      <trkpt lat="46.08256" lon="6.75006">
        <ele>1211.9</ele>
        <time>2023-08-13T08:36:06Z</time>
      </trkpt>
      <trkpt lat="46.08273" lon="6.75014">
        <ele>1224.2</ele>
        <time>2023-08-13T08:36:25Z</time>
      </trkpt>
      <trkpt lat="46.08276" lon="6.75016">
        <ele>1226.5</ele>
        <time>2023-08-13T08:36:30Z</time>
      </trkpt>
      <trkpt lat="46.08277" lon="6.75016">
        <ele>1227</ele>
        <time>2023-08-13T08:36:32Z</time>
      </trkpt>
      <trkpt lat="46.08283" lon="6.75017">
        <ele>1231.6</ele>
        <time>2023-08-13T08:37:13Z</time>
      </trkpt>
      <trkpt lat="46.08283" lon="6.75018">
        <ele>1232.5</ele>
        <time>2023-08-13T08:37:15Z</time>
      </trkpt>
      <trkpt lat="46.08283" lon="6.75021">
        <ele>1233.5</ele>
        <time>2023-08-13T08:37:19Z</time>
      </trkpt>
      <trkpt lat="46.08284" lon="6.75021">
        <ele>1234.2</ele>
        <time>2023-08-13T08:37:21Z</time>
      </trkpt>
      <trkpt lat="46.08291" lon="6.75034">
        <ele>1241.6</ele>
        <time>2023-08-13T08:37:36Z</time>
      </trkpt>
      <trkpt lat="46.08293" lon="6.75037">
        <ele>1243.4</ele>
        <time>2023-08-13T08:37:40Z</time>
      </trkpt>
      <trkpt lat="46.08295" lon="6.7504">
        <ele>1245.2</ele>
        <time>2023-08-13T08:37:42Z</time>
      </trkpt>
      <trkpt lat="46.08292" lon="6.75032">
        <ele>1249.2</ele>
        <time>2023-08-13T08:37:45Z</time>
      </trkpt>
      <trkpt lat="46.08291" lon="6.75031">
        <ele>1250.1</ele>
        <time>2023-08-13T08:37:48Z</time>
      </trkpt>
      <trkpt lat="46.08291" lon="6.7503">
        <ele>1250.2</ele>
        <time>2023-08-13T08:37:50Z</time>
      </trkpt>
      <trkpt lat="46.08305" lon="6.75042">
        <ele>1260.9</ele>
        <time>2023-08-13T08:38:17Z</time>
      </trkpt>
      <trkpt lat="46.08315" lon="6.75056">
        <ele>1270.4</ele>
        <time>2023-08-13T08:38:29Z</time>
      </trkpt>
      <trkpt lat="46.08318" lon="6.75061">
        <ele>1273.5</ele>
        <time>2023-08-13T08:38:32Z</time>
      </trkpt>
      <trkpt lat="46.08315" lon="6.75065">
        <ele>1275.8</ele>
        <time>2023-08-13T08:38:36Z</time>
      </trkpt>
      <trkpt lat="46.08327" lon="6.75077">
        <ele>1286.1</ele>
        <time>2023-08-13T08:39:17Z</time>
      </trkpt>
      <trkpt lat="46.08342" lon="6.75088">
        <ele>1298.6</ele>
        <time>2023-08-13T08:39:47Z</time>
      </trkpt>
      <trkpt lat="46.08347" lon="6.75094">
        <ele>1303.7</ele>
        <time>2023-08-13T08:39:50Z</time>
      </trkpt>
      <trkpt lat="46.08351" lon="6.75099">
        <ele>1307.7</ele>
        <time>2023-08-13T08:39:53Z</time>
      </trkpt>
      <trkpt lat="46.08353" lon="6.75102">
        <ele>1309.3</ele>
        <time>2023-08-13T08:39:55Z</time>
      </trkpt>
      <trkpt lat="46.08364" lon="6.75115">
        <ele>1320.3</ele>
        <time>2023-08-13T08:40:32Z</time>
      </trkpt>
      <trkpt lat="46.08373" lon="6.75126">
        <ele>1329.1</ele>
        <time>2023-08-13T08:41:10Z</time>
      </trkpt>
      <trkpt lat="46.08373" lon="6.75128">
        <ele>1330.5</ele>
        <time>2023-08-13T08:41:12Z</time>
      </trkpt>
      <trkpt lat="46.08379" lon="6.75151">
        <ele>1342.8</ele>
        <time>2023-08-13T08:41:36Z</time>
      </trkpt>
      <trkpt lat="46.08381" lon="6.75162">
        <ele>1347.6</ele>
        <time>2023-08-13T08:41:46Z</time>
      </trkpt>
      <trkpt lat="46.08381" lon="6.75165">
        <ele>1349.4</ele>
        <time>2023-08-13T08:41:49Z</time>
      </trkpt>
      <trkpt lat="46.08382" lon="6.75166">
        <ele>1350</ele>
        <time>2023-08-13T08:41:51Z</time>
      </trkpt>
      <trkpt lat="46.08382" lon="6.75168">
        <ele>1350.7</ele>
        <time>2023-08-13T08:41:53Z</time>
      </trkpt>
      <trkpt lat="46.08397" lon="6.75179">
        <ele>1361.8</ele>
        <time>2023-08-13T08:42:32Z</time>
      </trkpt>
      <trkpt lat="46.08406" lon="6.75197">
        <ele>1372.3</ele>
        <time>2023-08-13T08:43:00Z</time>
      </trkpt>
      <trkpt lat="46.0841" lon="6.75224">
        <ele>1383.5</ele>
        <time>2023-08-13T08:43:25Z</time>
      </trkpt>
      <trkpt lat="46.08419" lon="6.75247">
        <ele>1392.9</ele>
        <time>2023-08-13T08:43:45Z</time>
      </trkpt>
      <trkpt lat="46.0843" lon="6.75268">
        <ele>1401.8</ele>
        <time>2023-08-13T08:44:06Z</time>
      </trkpt>
      <trkpt lat="46.08431" lon="6.75268">
        <ele>1402.4</ele>
        <time>2023-08-13T08:44:07Z</time>
      </trkpt>
      <trkpt lat="46.0844" lon="6.75282">
        <ele>1409.5</ele>
        <time>2023-08-13T08:44:22Z</time>
      </trkpt>
      <trkpt lat="46.08445" lon="6.75286">
        <ele>1412.9</ele>
        <time>2023-08-13T08:44:30Z</time>
      </trkpt>
      <trkpt lat="46.08451" lon="6.75297">
        <ele>1417.9</ele>
        <time>2023-08-13T08:44:39Z</time>
      </trkpt>
      <trkpt lat="46.08453" lon="6.75301">
        <ele>1419.8</ele>
        <time>2023-08-13T08:44:43Z</time>
      </trkpt>
      <trkpt lat="46.08467" lon="6.75314">
        <ele>1429.4</ele>
        <time>2023-08-13T08:45:06Z</time>
      </trkpt>
      <trkpt lat="46.08486" lon="6.75317">
        <ele>1439.5</ele>
        <time>2023-08-13T08:45:24Z</time>
      </trkpt>
      <trkpt lat="46.08496" lon="6.75322">
        <ele>1445.4</ele>
        <time>2023-08-13T08:45:38Z</time>
      </trkpt>
      <trkpt lat="46.08504" lon="6.75347">
        <ele>1456.2</ele>
        <time>2023-08-13T08:46:05Z</time>
      </trkpt>
      <trkpt lat="46.08518" lon="6.75363">
        <ele>1466.5</ele>
        <time>2023-08-13T08:46:36Z</time>
      </trkpt>
      <trkpt lat="46.08528" lon="6.75387">
        <ele>1478.2</ele>
        <time>2023-08-13T08:46:58Z</time>
      </trkpt>
      <trkpt lat="46.08539" lon="6.75408">
        <ele>1489.7</ele>
        <time>2023-08-13T08:47:19Z</time>
      </trkpt>
      <trkpt lat="46.08552" lon="6.75425">
        <ele>1500.8</ele>
        <time>2023-08-13T08:47:43Z</time>
      </trkpt>
      <trkpt lat="46.08565" lon="6.75443">
        <ele>1511.8</ele>
        <time>2023-08-13T08:48:01Z</time>
      </trkpt>
      <trkpt lat="46.08578" lon="6.75462">
        <ele>1522.2</ele>
        <time>2023-08-13T08:48:19Z</time>
      </trkpt>
      <trkpt lat="46.08591" lon="6.75479">
        <ele>1532.2</ele>
        <time>2023-08-13T08:48:39Z</time>
      </trkpt>
      <trkpt lat="46.08602" lon="6.755">
        <ele>1542.3</ele>
        <time>2023-08-13T08:48:56Z</time>
      </trkpt>
      <trkpt lat="46.08614" lon="6.7552">
        <ele>1551.7</ele>
        <time>2023-08-13T08:49:17Z</time>
      </trkpt>
      <trkpt lat="46.0863" lon="6.75533">
        <ele>1561.8</ele>
        <time>2023-08-13T08:49:28Z</time>
      </trkpt>
      <trkpt lat="46.08645" lon="6.7555">
        <ele>1571.8</ele>
        <time>2023-08-13T08:49:43Z</time>
      </trkpt>
      <trkpt lat="46.0866" lon="6.75565">
        <ele>1581.6</ele>
        <time>2023-08-13T08:50:03Z</time>
      </trkpt>
      <trkpt lat="46.08667" lon="6.75574">
        <ele>1586.4</ele>
        <time>2023-08-13T08:50:14Z</time>
      </trkpt>
      <trkpt lat="46.0868" lon="6.75592">
        <ele>1596</ele>
        <time>2023-08-13T08:50:33Z</time>
      </trkpt>
      <trkpt lat="46.08692" lon="6.75612">
        <ele>1605.5</ele>
        <time>2023-08-13T08:50:55Z</time>
      </trkpt>
      <trkpt lat="46.08705" lon="6.7563">
        <ele>1614.8</ele>
        <time>2023-08-13T08:51:19Z</time>
      </trkpt>
      <trkpt lat="46.08721" lon="6.75643">
        <ele>1624.4</ele>
        <time>2023-08-13T08:51:43Z</time>
      </trkpt>
      <trkpt lat="46.08735" lon="6.75656">
        <ele>1633.1</ele>
        <time>2023-08-13T08:52:12Z</time>
      </trkpt>
      <trkpt lat="46.08752" lon="6.75665">
        <ele>1643</ele>
        <time>2023-08-13T08:52:39Z</time>
      </trkpt>
      <trkpt lat="46.08767" lon="6.75677">
        <ele>1652.2</ele>
        <time>2023-08-13T08:53:09Z</time>
      </trkpt>
      <trkpt lat="46.0878" lon="6.75695">
        <ele>1662.1</ele>
        <time>2023-08-13T08:53:45Z</time>
      </trkpt>
      <trkpt lat="46.08792" lon="6.75714">
        <ele>1672.2</ele>
        <time>2023-08-13T08:54:12Z</time>
      </trkpt>
      <trkpt lat="46.08807" lon="6.75728">
        <ele>1682.9</ele>
        <time>2023-08-13T08:54:35Z</time>
      </trkpt>
      <trkpt lat="46.08823" lon="6.75739">
        <ele>1693.2</ele>
        <time>2023-08-13T08:55:03Z</time>
      </trkpt>
      <trkpt lat="46.08834" lon="6.75758">
        <ele>1703</ele>
        <time>2023-08-13T08:55:26Z</time>
      </trkpt>
      <trkpt lat="46.08839" lon="6.75777">
        <ele>1711.1</ele>
        <time>2023-08-13T08:55:46Z</time>
      </trkpt>
      <trkpt lat="46.08856" lon="6.75784">
        <ele>1722.1</ele>
        <time>2023-08-13T08:56:11Z</time>
      </trkpt>
      <trkpt lat="46.08871" lon="6.75797">
        <ele>1732.7</ele>
        <time>2023-08-13T08:56:38Z</time>
      </trkpt>
      <trkpt lat="46.08888" lon="6.75806">
        <ele>1743.5</ele>
        <time>2023-08-13T08:57:16Z</time>
      </trkpt>
      <trkpt lat="46.08902" lon="6.75822">
        <ele>1754.6</ele>
        <time>2023-08-13T08:57:40Z</time>
      </trkpt>
      <trkpt lat="46.08913" lon="6.75823">
        <ele>1761.2</ele>
        <time>2023-08-13T08:58:00Z</time>
      </trkpt>
    </trkseg>
  </trk>
</gpx>